• Join FlightAware (Why Join?)
  • Login
  • US Flag GB Flag 
00:43 EST


 

Airport Tracker/Info


-or-


 

Live Flight TrackerFlight Track Log ✈ RPA3392 ✈ 07-Jul-2013 ✈ KMSP - KDCA

Flight Track Log - Related Links

Times and Time Zones

All times are in EDT time to prevent confusion due to time zone crossing. See the RPA3392 flight status page for this flight to view local times or setup timezone preferences in your user account.

Time Position Orientation Groundspeed Altitude Reporting Facility
EDT Latitude Longitude Course Direction KTS MPH feet Rate Location/Type
18:03 44.9000 -93.2500 117° Southeast 171 197 1,900  Level Minneapolis TRACON
18:04 44.9500 -93.2667 347° North 219 252 2,600 1,680 Climbing Minneapolis TRACON
18:05 44.7544 -92.7571 111° Southeast  Level Estimated
18:05 45.0167 -93.2028 34° Northeast 263 303 5,400  Level Minneapolis Center
18:06 44.7115 -92.6027 113° Southeast  Level Estimated
18:06 45.0044 -93.1017 100° East 283 326 8,000  Level Minneapolis Center
18:07 44.6707 -92.4569 125° Southeast  Level Estimated
18:07 44.9567 -93.0061 125° Southeast 295 339 10,300  Level Minneapolis Center
18:08 44.6298 -92.3113 117° Southeast  Level Estimated
18:08 44.9047 -92.9008 125° Southeast 324 373 12,000  Level Minneapolis Center
18:09 44.8497 -92.7892 125° Southeast 342 394 14,000 1,920 Climbing Minneapolis Center
18:10 44.7922 -92.6747 125° Southeast 355 409 16,000 1,980 Climbing Minneapolis Center
18:11 44.7203 -92.5328 125° Southeast 372 428 18,200 1,860 Climbing Minneapolis Center
18:12 44.6583 -92.4125 126° Southeast 378 435 19,900 1,500 Climbing Minneapolis Center
18:13 44.5950 -92.2861 125° Southeast 391 450 21,400 1,380 Climbing Minneapolis Center
18:14 44.5292 -92.1572 126° Southeast 404 465 22,800 1,260 Climbing Minneapolis Center
18:15 44.4617 -92.0281 126° Southeast 410 472 24,100 1,320 Climbing Minneapolis Center
18:16 44.3783 -91.8667 126° Southeast 425 489 25,600 1,440 Climbing Minneapolis Center
18:18 44.3208 -91.7217 119° Southeast 428 493 27,200 1,140 Climbing Minneapolis Center
18:19 44.2644 -91.5747 118° Southeast 430 495 28,100 780 Climbing Minneapolis Center
18:20 44.2067 -91.4236 118° Southeast 438 504 28,900 840 Climbing Minneapolis Center
18:21 44.1408 -91.2492 118° Southeast 449 517 29,900 780 Climbing Minneapolis Center
18:22 44.0811 -91.0961 118° Southeast 453 521 30,600 600 Climbing Minneapolis Center
18:23 44.0203 -90.9392 118° Southeast 460 529 31,200 480 Climbing Minneapolis Center
18:24 43.9578 -90.7800 119° Southeast 469 540 31,700 720 Climbing Minneapolis Center
18:25 43.8947 -90.6194 119° Southeast 474 545 32,700 900 Climbing Minneapolis Center
18:25 43.8622 -90.4847 108° East 473 544 33,200 720 Climbing Chicago Center
18:26 43.8300 -90.3122 104° East 468 539 33,900 600 Climbing Chicago Center
18:27 43.7933 -90.1247 105° East 465 535 34,500 480 Climbing Chicago Center
18:29 43.7592 -89.9494 105° East 470 541 34,900 240 Climbing Chicago Center
18:30 43.7239 -89.7742 106° East 473 544 35,000  Climbing Chicago Center
18:31 43.6897 -89.5986 105° East 473 544 35,000  Level Chicago Center
18:32 43.6550 -89.4244 105° East 471 542 35,000  Level Chicago Center
18:33 43.6136 -89.2186 105° East 475 547 35,000  Level Chicago Center
18:34 43.5775 -89.0439 106° East 474 545 35,000  Level Chicago Center
18:35 43.5417 -88.8697 106° East 473 544 35,000  Level Chicago Center
18:36 43.5053 -88.6950 106° East 475 547 35,000  Level Chicago Center
18:37 43.4678 -88.5197 106° East 484 557 35,000  Level Chicago Center
18:38 43.4281 -88.3422 107° East 483 556 35,000  Level Chicago Center
18:39 43.3908 -88.1528 105° East 474 545 35,000  Level Chicago Center
18:40 43.3539 -87.9811 106° East 469 540 35,000  Level Chicago Center
18:41 43.3103 -87.7831 107° East 464 534 35,000  Level Chicago Center
18:42 43.2733 -87.6147 107° East 461 531 35,000  Level Chicago Center
18:43 43.2364 -87.4453 107° East 464 534 35,000  Level Chicago Center
18:44 43.2028 -87.2886 106° East 465 535 35,000  Level Chicago Center
18:45 43.1572 -87.0861 107° East 465 535 35,000  Level Chicago Center
18:46 43.1189 -86.9200 107° East 461 531 35,000  Level Chicago Center
18:47 43.0811 -86.7536 107° East 459 528 35,000  Level Chicago Center
18:48 43.0442 -86.5897 107° East 455 524 35,000  Level Chicago Center
18:49 43.0067 -86.4272 107° East 452 520 35,000  Level Chicago Center
18:50 42.9683 -86.2675 108° East 449 517 35,000  Level Chicago Center
18:51 42.9214 -86.0769 109° East 452 520 35,000  Level Chicago Center
18:52 42.8867 -85.9178 107° East 450 518 35,000  Level Chicago Center
18:53 42.8478 -85.7553 108° East 458 527 35,000  Level Chicago Center
18:54 42.8100 -85.5936 108° East 456 525 35,000  Level Chicago Center
18:55 42.7544 -85.4022 112° Southeast 457 526 35,000  Level Chicago Center
18:56 42.6994 -85.2453 115° Southeast 461 531 35,000  Level Chicago Center
18:57 42.6436 -85.0883 116° Southeast 463 533 35,000  Level Chicago Center
18:59 42.5886 -84.9336 116° Southeast 459 528 35,000  Level Chicago Center
19:00 42.5208 -84.7819 121° Southeast 474 545 35,000  Level Chicago Center
19:01 42.4139 -84.6222 132° Southeast 480 552 35,000  Level Chicago Center
19:02 42.3442 -84.4775 123° Southeast 464 534 35,000  Level Chicago Center
19:03 42.2839 -84.3444 121° Southeast 463 533 35,000  Level Cleveland Center
19:04 42.2242 -84.1978 119° Southeast 457 526 35,000  Level Cleveland Center
19:05 42.1619 -84.0458 119° Southeast 452 520 35,000  Level Cleveland Center
19:06 42.1017 -83.9025 120° Southeast 452 520 35,000  Level Cleveland Center
19:07 42.0392 -83.7567 120° Southeast 452 520 35,000  Level Cleveland Center
19:08 41.9803 -83.6139 119° Southeast 452 520 35,000  Level Cleveland Center
19:09 41.9194 -83.4744 120° Southeast 447 514 35,000  Level Cleveland Center
19:10 41.7029 -82.9536 118° Southeast  Level FlightAware Approximate
19:10 41.8683 -83.3464 118° Southeast 441 507 35,000  Level Cleveland Center
19:11 41.8067 -83.2128 122° Southeast 436 502 35,000  Level Cleveland Center
19:12 41.7261 -83.0956 133° Southeast 429 494 35,000  Level Cleveland Center
19:13 41.6472 -82.9842 133° Southeast 418 481 35,000  Level Cleveland Center
19:14 41.5703 -82.8731 133° Southeast 412 474 35,000  Level Cleveland Center
19:15 41.4931 -82.7619 133° Southeast 405 466 35,000  Level Cleveland Center
19:16 41.4139 -82.6542 134° Southeast 405 466 35,000  Level Cleveland Center
19:17 41.3344 -82.5439 134° Southeast 405 466 35,000  Level Cleveland Center
19:18 41.2569 -82.4336 133° Southeast 405 466 35,000  Level Cleveland Center
19:19 41.1775 -82.3267 135° Southeast 405 466 35,000  Level Cleveland Center
19:20 41.0997 -82.2172 133° Southeast 405 466 35,000  Level Cleveland Center
19:21 41.0200 -82.1078 134° Southeast 405 466 35,000  Level Cleveland Center
19:22 40.9381 -81.9931 133° Southeast 405 466 35,000  Level Cleveland Center
19:23 40.8561 -81.8872 136° Southeast 410 472 35,000  Level Cleveland Center
19:24 40.7758 -81.7758 134° Southeast 415 478 35,000  Level Cleveland Center
19:25 40.6978 -81.6675 134° Southeast 410 472 35,000  Level Cleveland Center
19:26 40.6114 -81.5514 134° Southeast 405 466 35,000  Level Cleveland Center
19:27 40.5308 -81.4408 134° Southeast 405 466 35,000  Level Cleveland Center
19:28 40.4567 -81.3361 133° Southeast 405 466 35,000  Level Cleveland Center
19:29 40.3781 -81.2317 135° Southeast 399 459 35,000  Level Cleveland Center
19:30 40.2908 -81.1439 142° Southeast 399 459 35,000  Level Cleveland Center
19:31 40.1953 -81.0914 157° South 388 447 35,000 -360 Level Cleveland Center
19:32 40.0972 -81.0797 175° South 366 421 34,300 -1,020 Descending Cleveland Center
19:33 39.9994 -81.0844 182° South 355 409 33,000 -660 Descending Cleveland Center
19:34 39.9033 -81.0811 178° South 349 402 33,000  Level Cleveland Center
19:35 39.8078 -81.0478 165° South 349 402 33,000  Level Cleveland Center
19:36 39.7478 -80.9286 123° Southeast 344 396 33,000 -360 Level Cleveland Center
19:37 39.6981 -80.7936 116° Southeast 370 426 32,300 -840 Descending Cleveland Center
19:38 39.6439 -80.6639 118° Southeast 393 452 31,400 -480 Descending Cleveland Center
19:39 39.5439 -80.4197 118° Southeast 418 481 31,000 -180 Descending Washington Center
19:40 39.4889 -80.2842 118° Southeast 424 488 31,000  Level Washington Center
19:41 39.4336 -80.1517 118° Southeast 424 488 31,000  Level Washington Center
19:42 39.3781 -80.0192 118° Southeast 424 488 31,000  Level Washington Center
19:43 39.3206 -79.8817 118° Southeast 424 488 31,000  Level Washington Center
19:44 39.2922 -79.7406 105° East 431 496 31,000  Level Washington Center
19:45 39.2767 -79.5786 97° East 441 507 31,000 -180 Level Washington Center
19:46 39.2653 -79.4172 95° East 452 520 30,700 -1,500 Descending Washington Center
19:47 39.2458 -79.2392 98° East 452 520 28,100 -1,980 Descending Washington Center
19:48 39.2339 -79.0806 96° East 452 520 26,800 -1,320 Descending Washington Center
19:49 39.2194 -78.9272 97° East 447 514 25,500 -1,920 Descending Washington Center
19:50 39.2050 -78.7711 97° East 442 509 23,100 -2,580 Descending Washington Center
19:51 39.1900 -78.6231 97° East 430 495 20,500 -2,340 Descending Washington Center
19:52 39.1747 -78.4778 98° East 418 481 18,400 -1,740 Descending Washington Center
19:53 39.1572 -78.3433 99° East 399 459 17,000 -720 Descending Washington Center
19:54 39.1267 -78.2164 107° East 386 444 17,000 -180 Level Washington Center
19:55 39.0939 -78.0842 108° East 381 438 16,700 -1,200 Descending Washington Center
19:56 39.0592 -77.9547 109° East 381 438 14,700 -1,860 Descending Washington Center
19:57 39.0322 -77.8389 107° East 361 415 13,000 -1,800 Descending Washington Center
19:58 39.0028 -77.7311 109° East 328 377 11,100 -1,680 Descending Washington Center
19:59 38.9753 -77.6342 110° East 323 372 9,700 -1,140 Descending Washington Center
20:00 38.9475 -77.5533 114° Southeast 313 360 8,900 -1,140 Descending Washington Center
20:02 38.8833 -77.3833 116° Southeast 295 339 7,000 -1,260 Descending Potomac TRACON
20:03 38.8500 -77.3000 117° Southeast 275 316 6,000 -540 Descending Potomac TRACON
20:04 38.8167 -77.2167 117° Southeast 259 298 6,000 -360 Level Potomac TRACON
20:05 38.7833 -77.1500 123° Southeast 246 283 5,300 -1,200 Descending Potomac TRACON
20:06 38.7333 -77.1167 153° Southeast 225 259 3,700 -1,200 Descending Potomac TRACON
20:07 38.6833 -77.0667 142° Southeast 225 259 3,000 -780 Descending Potomac TRACON
20:08 38.7167 -77.0333 38° Northeast 188 216 2,200 -900 Descending Potomac TRACON
20:09 38.7667 -77.0333 360° North 178 205 1,300 -900 Descending Potomac TRACON
20:10 38.8167 -77.0333 360° North 151 174 500 -840 Descending Potomac TRACON